createdAt,value
2022-11-05T00:00:18.395Z,17.85
2022-11-05T00:03:03.726Z,19.60
2022-11-05T00:05:49.754Z,17.05
2022-11-05T00:08:35.143Z,19.60
2022-11-05T00:11:01.741Z,18.67
2022-11-05T00:13:47.527Z,18.67
2022-11-05T00:16:32.593Z,20.15
2022-11-05T00:19:09.114Z,18.83
2022-11-05T00:21:56.677Z,17.30
2022-11-05T00:24:42.703Z,19.83
2022-11-05T00:27:10.111Z,16.63
2022-11-05T00:29:36.685Z,20.02
2022-11-05T00:32:03.599Z,18.52
2022-11-05T00:34:30.159Z,19.05
2022-11-05T00:36:56.716Z,20.38
2022-11-05T00:39:23.342Z,18.25
2022-11-05T00:42:09.839Z,20.17
2022-11-05T00:44:54.979Z,19.05
2022-11-05T00:47:40.427Z,21.58
2022-11-05T00:50:07.500Z,22.85
2022-11-05T00:52:52.625Z,18.63
2022-11-05T00:55:19.209Z,19.38
2022-11-05T00:57:45.805Z,21.48
2022-11-05T01:00:12.831Z,18.65
2022-11-05T01:02:39.532Z,18.02
2022-11-05T01:05:06.912Z,18.42
2022-11-05T01:07:33.559Z,19.20
2022-11-05T01:10:00.253Z,17.50
2022-11-05T01:12:26.828Z,17.67
2022-11-05T01:14:53.362Z,17.20
2022-11-05T01:17:19.998Z,16.83
2022-11-05T01:19:46.717Z,17.75
2022-11-05T01:22:13.278Z,19.98
2022-11-05T01:24:39.886Z,17.65
2022-11-05T01:27:06.564Z,17.38
2022-11-05T01:29:33.144Z,15.93
2022-11-05T01:31:59.845Z,16.73
2022-11-05T01:34:26.728Z,17.58
2022-11-05T01:36:53.315Z,16.80
2022-11-05T01:39:19.960Z,19.08
2022-11-05T01:41:46.527Z,21.27
2022-11-05T01:44:53.084Z,22.48
2022-11-05T01:47:47.241Z,25.60
2022-11-05T01:50:27.246Z,26.75
2022-11-05T01:53:02.592Z,28.08
2022-11-05T01:55:33.395Z,32.50
2022-11-05T01:58:02.155Z,29.00
2022-11-05T02:00:28.712Z,27.20
2022-11-05T02:02:55.428Z,26.73
2022-11-05T02:05:22.620Z,28.23
2022-11-05T02:07:50.024Z,26.52
2022-11-05T02:10:18.252Z,26.55
2022-11-05T02:12:46.756Z,26.50
2022-11-05T02:15:43.628Z,27.42
2022-11-05T02:21:12.161Z,23.67
2022-11-05T02:23:59.065Z,22.52
2022-11-05T02:26:45.423Z,23.48
2022-11-05T02:29:42.877Z,25.25
2022-11-05T02:32:54.252Z,29.80
2022-11-05T02:35:23.644Z,31.55
2022-11-05T02:37:55.692Z,22.73
2022-11-05T02:40:33.735Z,24.23
2022-11-05T02:43:03.108Z,25.05
2022-11-05T02:45:41.931Z,30.33
2022-11-05T02:48:35.299Z,25.98
2022-11-05T02:51:48.112Z,25.02
2022-11-05T02:54:14.623Z,22.75
2022-11-05T02:56:45.285Z,26.17
2022-11-05T02:59:11.820Z,23.63
2022-11-05T03:01:41.317Z,33.35
2022-11-05T03:04:10.817Z,26.23
2022-11-05T03:06:48.296Z,28.23
2022-11-05T03:09:39.342Z,24.67
2022-11-05T03:12:15.065Z,20.17
2022-11-05T03:15:21.231Z,25.25
2022-11-05T03:17:47.758Z,25.33
2022-11-05T03:20:34.899Z,26.98
2022-11-05T03:23:38.856Z,27.05
2022-11-05T03:26:18.520Z,26.15
2022-11-05T03:28:51.796Z,29.10
2022-11-05T03:31:20.772Z,20.90
2022-11-05T03:33:50.297Z,22.05
2022-11-05T03:36:30.964Z,25.45
2022-11-05T03:39:02.621Z,22.77
2022-11-05T03:41:29.620Z,25.90
2022-11-05T03:44:01.579Z,24.98
2022-11-05T03:46:35.961Z,24.60
2022-11-05T03:49:04.365Z,25.23
2022-11-05T03:51:41.775Z,22.73
2022-11-05T03:54:09.489Z,25.50
2022-11-05T03:56:44.435Z,26.23
2022-11-05T03:59:12.115Z,21.50
2022-11-05T04:01:39.579Z,22.65
2022-11-05T04:04:06.860Z,24.02
2022-11-05T04:06:52.208Z,23.33
2022-11-05T04:09:37.303Z,26.17
2022-11-05T04:12:22.927Z,21.85
2022-11-05T04:14:49.530Z,20.27
2022-11-05T04:17:16.068Z,22.70
2022-11-05T04:20:02.393Z,22.60
2022-11-05T04:22:49.863Z,23.80
2022-11-05T04:25:17.884Z,26.85
2022-11-05T04:27:45.241Z,23.25
2022-11-05T04:30:19.622Z,26.45
2022-11-05T04:33:12.897Z,24.70
2022-11-05T04:35:45.816Z,24.00
2022-11-05T04:38:14.971Z,26.23
2022-11-05T04:40:41.675Z,21.75
2022-11-05T04:43:14.586Z,31.00
2022-11-05T04:45:42.542Z,27.58
2022-11-05T04:48:09.355Z,23.02
2022-11-05T04:50:36.316Z,21.95
2022-11-05T04:53:03.039Z,24.77
2022-11-05T04:55:29.683Z,24.73
2022-11-05T04:57:56.272Z,27.58
2022-11-05T05:00:23.967Z,21.63
2022-11-05T05:02:50.671Z,22.38
2022-11-05T05:05:17.577Z,27.67
2022-11-05T05:07:44.307Z,25.08
2022-11-05T05:10:11.829Z,23.90
2022-11-05T05:12:38.433Z,25.13
2022-11-05T05:15:05.501Z,24.70
2022-11-05T05:17:32.083Z,22.95
2022-11-05T05:20:17.426Z,22.77
2022-11-05T06:31:20.178Z,22.17
2022-11-05T06:33:47.331Z,21.60
2022-11-05T06:36:16.438Z,20.00
2022-11-05T06:38:43.060Z,20.88
2022-11-05T06:41:10.723Z,23.35
2022-11-05T06:43:38.330Z,19.48
2022-11-05T06:46:05.147Z,21.02
2022-11-05T06:48:31.935Z,21.33
2022-11-05T06:50:58.697Z,21.63
2022-11-05T06:53:25.679Z,20.35
2022-11-05T06:55:52.279Z,18.92
2022-11-05T06:58:19.156Z,21.00
2022-11-05T07:00:46.192Z,20.00
2022-11-05T07:03:13.745Z,22.55
2022-11-05T07:05:45.280Z,20.48
2022-11-05T07:08:13.225Z,23.45
2022-11-05T07:10:39.803Z,22.15
2022-11-05T07:13:08.341Z,21.42
2022-11-05T07:15:35.544Z,18.15
2022-11-05T07:18:02.277Z,20.52
2022-11-05T07:20:33.534Z,19.42
2022-11-05T07:23:06.281Z,18.10
2022-11-05T07:25:34.011Z,21.50
2022-11-05T07:28:00.821Z,17.52
2022-11-05T07:30:27.905Z,19.02
2022-11-05T07:32:54.757Z,20.38
2022-11-05T07:35:21.487Z,14.75
2022-11-05T07:37:50.664Z,19.17
2022-11-05T07:40:19.333Z,19.52
2022-11-05T07:42:49.011Z,21.17
2022-11-05T07:45:16.144Z,20.02
2022-11-05T07:48:00.580Z,16.50
2022-11-05T07:50:29.717Z,19.08
2022-11-05T07:53:03.517Z,16.60
2022-11-05T07:55:30.390Z,16.30
2022-11-05T07:57:57.026Z,16.45
2022-11-05T08:00:25.444Z,17.30
2022-11-05T08:03:15.593Z,15.02
2022-11-05T08:05:47.235Z,14.85
2022-11-05T08:08:15.929Z,13.90
2022-11-05T08:10:44.312Z,14.65
2022-11-05T08:13:11.668Z,15.50
2022-11-05T08:15:38.985Z,14.85
2022-11-05T08:18:08.721Z,13.57
2022-11-05T08:20:36.454Z,14.70
2022-11-05T08:23:03.116Z,15.82
2022-11-05T08:25:29.813Z,15.75
2022-11-05T08:27:57.859Z,14.10
2022-11-05T08:30:25.060Z,17.15
2022-11-05T08:32:55.924Z,16.35
2022-11-05T08:35:22.475Z,17.70
2022-11-05T08:37:49.021Z,20.40
2022-11-05T08:40:15.702Z,15.60
2022-11-05T08:42:42.348Z,20.02
2022-11-05T08:45:11.438Z,17.73
2022-11-05T08:47:38.004Z,18.83
2022-11-05T08:50:04.800Z,15.52
2022-11-05T08:52:31.379Z,16.05
2022-11-05T08:54:57.923Z,17.10
2022-11-05T08:57:24.552Z,17.48
2022-11-05T08:59:51.156Z,17.58
2022-11-05T09:02:17.838Z,15.93
2022-11-05T09:04:44.717Z,14.93
2022-11-05T09:07:11.260Z,14.77
2022-11-05T09:09:37.810Z,16.65
2022-11-05T09:12:13.079Z,14.60
2022-11-05T09:14:39.851Z,13.85
2022-11-05T09:17:17.787Z,14.27
2022-11-05T09:19:44.763Z,13.85
2022-11-05T09:22:12.945Z,16.27
2022-11-05T09:24:40.735Z,17.67
2022-11-05T09:27:10.280Z,16.42
2022-11-05T09:29:37.034Z,16.10
2022-11-05T09:32:03.673Z,17.60
2022-11-05T09:34:30.228Z,15.93
2022-11-05T09:36:57.774Z,17.42
2022-11-05T09:39:24.940Z,19.88
2022-11-05T09:41:55.055Z,17.10
2022-11-05T09:44:32.093Z,17.67
2022-11-05T09:47:06.563Z,19.30
2022-11-05T09:49:41.468Z,18.27
2022-11-05T09:52:18.444Z,17.45
2022-11-05T09:54:46.085Z,18.13
2022-11-05T09:57:17.761Z,18.30
2022-11-05T09:59:51.334Z,18.05
2022-11-05T10:02:31.739Z,17.80
2022-11-05T10:05:09.481Z,17.25
2022-11-05T10:07:43.817Z,19.02
2022-11-05T10:10:41.163Z,19.40
2022-11-05T10:13:14.762Z,18.70
2022-11-05T10:15:46.897Z,19.15
2022-11-05T10:18:19.286Z,18.40
2022-11-05T10:20:46.163Z,20.65
2022-11-05T10:23:17.250Z,21.73
2022-11-05T10:26:08.025Z,19.50
2022-11-05T10:28:35.460Z,20.92
2022-11-05T10:31:06.249Z,19.75
2022-11-05T10:33:46.479Z,22.42
2022-11-05T10:36:35.811Z,24.90
2022-11-05T10:39:11.752Z,21.48
2022-11-05T10:44:16.082Z,24.35
2022-11-05T10:47:01.258Z,22.08
2022-11-05T10:49:46.059Z,18.20
2022-11-05T10:52:42.463Z,22.70
2022-11-05T10:55:34.742Z,21.70
2022-11-05T10:58:31.808Z,20.67
2022-11-05T11:00:58.472Z,16.55
2022-11-05T11:03:47.719Z,22.10
2022-11-05T11:06:25.126Z,21.17
2022-11-05T11:08:55.520Z,21.27
2022-11-05T11:11:52.694Z,20.35
2022-11-05T11:14:22.414Z,21.20
2022-11-05T11:16:51.233Z,23.02
2022-11-05T11:19:20.457Z,23.10
2022-11-05T11:21:47.847Z,25.00
2022-11-05T11:24:23.329Z,25.63
2022-11-05T11:26:49.923Z,23.80
2022-11-05T11:29:25.555Z,23.55
2022-11-05T11:31:57.082Z,25.00
2022-11-05T11:34:30.488Z,24.88
2022-11-05T11:37:14.057Z,25.50
2022-11-05T15:02:38.221Z,33.53
2022-11-05T15:06:01.949Z,33.33
2022-11-05T15:08:38.569Z,34.17
2022-11-05T15:11:14.922Z,32.33
2022-11-05T15:13:53.423Z,34.55
2022-11-05T15:16:26.421Z,38.25
2022-11-05T15:18:55.759Z,34.00
2022-11-05T15:21:22.666Z,34.65
2022-11-05T15:23:53.215Z,33.85
2022-11-05T15:26:26.640Z,35.22
2022-11-05T15:28:55.256Z,35.53
2022-11-05T15:31:37.209Z,32.60
2022-11-05T15:34:23.715Z,34.67
2022-11-05T15:39:30.293Z,37.25
2022-11-05T15:42:04.341Z,33.33
2022-11-05T15:44:39.897Z,35.38
2022-11-05T15:47:30.240Z,35.67
2022-11-05T15:50:14.805Z,29.63
2022-11-05T15:52:50.172Z,33.58
2022-11-05T15:55:18.883Z,36.40
2022-11-05T15:57:51.523Z,30.88
2022-11-05T16:00:28.193Z,32.95
2022-11-05T16:02:58.433Z,35.08
2022-11-05T16:05:31.389Z,30.60
2022-11-05T16:07:59.806Z,34.42
2022-11-05T16:10:30.889Z,30.33
2022-11-05T16:12:57.537Z,33.65
2022-11-05T16:15:29.534Z,30.90
2022-11-05T16:17:59.484Z,31.85
2022-11-05T16:20:32.657Z,34.05
2022-11-05T16:23:05.267Z,34.08
2022-11-05T16:25:44.126Z,31.70
2022-11-05T16:28:28.223Z,32.20
2022-11-05T16:30:54.759Z,32.70
2022-11-05T16:33:21.873Z,32.28
2022-11-05T16:35:49.689Z,29.75
2022-11-05T16:38:17.712Z,35.05
2022-11-05T16:40:44.364Z,32.95
2022-11-05T16:43:30.070Z,34.72
2022-11-05T16:46:01.013Z,36.33
2022-11-05T16:48:28.119Z,38.10
2022-11-05T16:50:54.962Z,33.13
2022-11-05T16:53:21.840Z,34.65
2022-11-05T16:55:49.352Z,33.05
2022-11-05T16:58:25.015Z,29.08
2022-11-05T17:01:01.944Z,35.92
2022-11-05T17:03:28.718Z,30.42
2022-11-05T17:05:55.476Z,30.92
2022-11-05T17:08:22.063Z,30.90
2022-11-05T17:10:48.705Z,28.67
2022-11-05T17:13:17.233Z,31.75
2022-11-05T17:15:45.976Z,29.65
2022-11-05T17:18:18.245Z,34.42
2022-11-05T17:20:51.673Z,31.85
2022-11-05T17:23:20.727Z,32.25
2022-11-05T17:25:50.073Z,31.60
2022-11-05T17:28:17.803Z,30.45
2022-11-05T17:30:51.672Z,34.47
2022-11-05T17:33:19.737Z,32.90
2022-11-05T17:35:46.607Z,33.22
2022-11-05T17:38:13.420Z,30.38
2022-11-05T17:40:40.467Z,32.28
2022-11-05T17:43:07.838Z,32.97
2022-11-05T17:45:34.475Z,30.38
2022-11-05T17:48:03.268Z,29.73
2022-11-05T17:50:32.650Z,31.38
2022-11-05T17:52:59.254Z,32.85
2022-11-05T17:55:25.834Z,33.65
2022-11-05T17:57:53.633Z,32.95
2022-11-05T18:00:22.907Z,34.33
2022-11-05T18:02:51.866Z,33.33
2022-11-05T18:05:20.329Z,31.92
2022-11-05T21:41:24.883Z,30.83
2022-11-05T21:43:51.458Z,29.30
2022-11-05T21:46:18.023Z,28.58
2022-11-05T21:48:44.642Z,30.08
2022-11-05T21:51:30.190Z,29.13
2022-11-05T21:54:15.969Z,29.73
2022-11-05T21:57:08.204Z,30.35
2022-11-05T21:59:49.677Z,28.88
2022-11-05T22:02:19.596Z,29.00
2022-11-05T22:04:53.733Z,28.30
2022-11-05T22:07:26.130Z,26.67
2022-11-05T22:09:53.219Z,28.02
2022-11-05T22:12:20.712Z,32.67
2022-11-05T22:14:47.271Z,28.67
2022-11-05T22:17:14.413Z,30.58
2022-11-05T22:19:41.255Z,30.88
2022-11-05T22:22:08.083Z,29.98
2022-11-05T22:24:35.160Z,30.92
2022-11-05T22:27:07.683Z,29.88
2022-11-05T22:29:35.160Z,30.98
2022-11-05T22:32:02.820Z,35.13
2022-11-05T22:34:29.501Z,29.85
2022-11-05T22:36:56.187Z,35.15
2022-11-05T22:39:22.983Z,32.90
2022-11-05T22:41:54.727Z,31.38
2022-11-05T22:44:24.542Z,32.63
2022-11-05T22:46:51.472Z,35.50
2022-11-05T22:49:18.393Z,36.00
2022-11-05T22:51:45.336Z,33.75
2022-11-05T22:54:12.383Z,34.70
2022-11-05T22:56:41.275Z,33.60
2022-11-05T22:59:11.991Z,34.40
2022-11-05T23:01:39.131Z,34.25
2022-11-05T23:04:05.836Z,33.70
2022-11-05T23:06:52.389Z,36.63
2022-11-05T23:09:41.552Z,33.92
2022-11-05T23:12:19.866Z,36.38
2022-11-05T23:14:46.622Z,32.33
2022-11-05T23:17:31.764Z,37.45
2022-11-05T23:20:30.773Z,34.30
2022-11-05T23:23:16.887Z,35.80
2022-11-05T23:25:44.191Z,32.95
2022-11-05T23:28:12.466Z,36.40
2022-11-05T23:31:02.415Z,34.53
2022-11-05T23:33:32.738Z,40.17
2022-11-05T23:36:17.860Z,36.83
2022-11-05T23:38:44.428Z,38.92
2022-11-05T23:41:29.599Z,34.60
2022-11-05T23:44:14.977Z,36.13
2022-11-05T23:47:00.523Z,39.92
2022-11-05T23:49:28.061Z,39.40
2022-11-05T23:51:54.661Z,39.28
2022-11-05T23:54:21.943Z,35.42
2022-11-05T23:56:48.596Z,36.97
2022-11-05T23:59:15.150Z,34.42
